VNKT/KTM METAR and TAF weather

Enter ICAO airport designator
Station Type Date Time Source
VNKT METAR 2021/04/18 03:20 UTC NOAA

VNKT 180320Z 00000KT 6000 FEW015 19/11 Q1020 NOSIG


Station Type Date Time Source
VNKT Decoded METAR 2021/04/18 03:20 UTC NOAA

Kathmandu Airport, Nepal (VNKT) 27-42N 085-22E 1337M
Apr 17, 2021 - 11:20 PM EDT / 2021.04.18 0320 UTC
Wind: Calm:0
Visibility: 3 mile(s):0
Sky conditions: mostly clear
Temperature: 66 F (19 C)
Dew Point: 51 F (11 C)
Relative Humidity: 59%
Pressure (altimeter): 30.12 in. Hg (1020 hPa)
ob: VNKT 180320Z 00000KT 6000 FEW015 19/11 Q1020 NOSIG
cycle: 3

Station Type Date Time Source
VNKT TAF 2021/04/17 18:42 UTC NOAA

TAF VNKT 171700Z 1718/1818 14004KT 6000 FEW015 SCT030
BECMG 1800/1802 VRB02KT 3000 BR FEW010 SCT100
BECMG 1805/1806 12004KT 5000 BR FEW015 SCT030
BECMG 1807/1809 28008KT 8000 FEW020 SCT025 BKN100 PROB40 1808/1812 27012G25KT 3000 TSRA FEW025CB
BECMG 1814/1815 21004KT 6000 FEW015 SCT030

Example: see airport list